sensor_id;sensor_type;location;lat;lon;timestamp;pressure;altitude;pressure_sealevel;temperature;humidity
41078;BME280;26823;42.662;23.352;2023-09-19T00:00:23;95186.94;;;15.78;77.39
41078;BME280;26823;42.662;23.352;2023-09-19T00:02:58;95198.69;;;15.92;76.95
41078;BME280;26823;42.662;23.352;2023-09-19T00:05:27;95198.28;;;15.99;76.63
41078;BME280;26823;42.662;23.352;2023-09-19T00:07:54;95206.69;;;15.89;77.07
41078;BME280;26823;42.662;23.352;2023-09-19T00:10:21;95196.06;;;16.01;76.69
41078;BME280;26823;42.662;23.352;2023-09-19T00:12:50;95198.88;;;15.96;76.98
41078;BME280;26823;42.662;23.352;2023-09-19T00:15:24;95191.91;;;15.76;78.14
41078;BME280;26823;42.662;23.352;2023-09-19T00:17:51;95192.22;;;15.88;77.64
41078;BME280;26823;42.662;23.352;2023-09-19T00:20:18;95191.53;;;15.82;77.79
41078;BME280;26823;42.662;23.352;2023-09-19T00:22:44;95190.31;;;15.89;78.00
41078;BME280;26823;42.662;23.352;2023-09-19T00:25:10;95194.19;;;15.55;79.21
41078;BME280;26823;42.662;23.352;2023-09-19T00:27:40;95174.41;;;15.63;78.66
41078;BME280;26823;42.662;23.352;2023-09-19T00:30:06;95189.84;;;15.54;79.60
41078;BME280;26823;42.662;23.352;2023-09-19T00:32:34;95186.50;;;15.29;80.93
41078;BME280;26823;42.662;23.352;2023-09-19T00:34:59;95186.63;;;15.19;81.98
41078;BME280;26823;42.662;23.352;2023-09-19T00:37:25;95169.84;;;14.97;82.43
41078;BME280;26823;42.662;23.352;2023-09-19T00:39:51;95187.63;;;15.09;82.82
41078;BME280;26823;42.662;23.352;2023-09-19T00:42:20;95178.72;;;15.03;83.04
41078;BME280;26823;42.662;23.352;2023-09-19T00:44:46;95138.13;;;14.88;82.68
41078;BME280;26823;42.662;23.352;2023-09-19T00:47:12;95164.75;;;15.24;82.05
41078;BME280;26823;42.662;23.352;2023-09-19T00:49:46;95166.91;;;15.27;81.81
41078;BME280;26823;42.662;23.352;2023-09-19T00:52:18;95160.41;;;15.09;82.95
41078;BME280;26823;42.662;23.352;2023-09-19T00:54:48;95168.78;;;15.26;82.30
41078;BME280;26823;42.662;23.352;2023-09-19T00:57:14;95169.53;;;15.32;81.95
41078;BME280;26823;42.662;23.352;2023-09-19T00:59:45;95171.72;;;15.30;82.30
41078;BME280;26823;42.662;23.352;2023-09-19T01:02:11;95167.25;;;15.06;83.11
41078;BME280;26823;42.662;23.352;2023-09-19T01:04:40;95172.00;;;15.14;83.34
41078;BME280;26823;42.662;23.352;2023-09-19T01:07:05;95157.53;;;15.00;83.82
41078;BME280;26823;42.662;23.352;2023-09-19T01:09:31;95171.03;;;14.91;84.19
41078;BME280;26823;42.662;23.352;2023-09-19T01:12:01;95188.16;;;14.92;84.33
41078;BME280;26823;42.662;23.352;2023-09-19T01:14:52;95176.97;;;14.93;84.95
41078;BME280;26823;42.662;23.352;2023-09-19T01:25:28;95178.25;;;15.01;85.20
41078;BME280;26823;42.662;23.352;2023-09-19T01:30:40;95181.28;;;15.13;84.36
41078;BME280;26823;42.662;23.352;2023-09-19T01:33:08;95179.59;;;15.18;84.23
41078;BME280;26823;42.662;23.352;2023-09-19T01:35:37;95141.34;;;14.76;84.92
41078;BME280;26823;42.662;23.352;2023-09-19T01:38:05;95145.69;;;14.91;85.39
41078;BME280;26823;42.662;23.352;2023-09-19T01:40:33;95164.28;;;14.89;85.95
41078;BME280;26823;42.662;23.352;2023-09-19T01:43:12;95154.44;;;14.74;86.69
41078;BME280;26823;42.662;23.352;2023-09-19T01:46:17;95148.91;;;14.79;86.62
41078;BME280;26823;42.662;23.352;2023-09-19T01:52:11;95157.19;;;15.21;84.88
41078;BME280;26823;42.662;23.352;2023-09-19T01:55:02;95162.66;;;15.35;84.40
41078;BME280;26823;42.662;23.352;2023-09-19T02:00:25;95165.88;;;15.23;84.02
41078;BME280;26823;42.662;23.352;2023-09-19T02:02:53;95176.16;;;15.26;84.13
41078;BME280;26823;42.662;23.352;2023-09-19T02:05:26;95182.25;;;15.37;83.77
41078;BME280;26823;42.662;23.352;2023-09-19T02:07:56;95184.78;;;15.47;83.69
41078;BME280;26823;42.662;23.352;2023-09-19T02:10:22;95183.81;;;15.57;83.34
41078;BME280;26823;42.662;23.352;2023-09-19T02:12:49;95173.91;;;15.61;82.66
41078;BME280;26823;42.662;23.352;2023-09-19T02:15:15;95169.25;;;15.61;82.52
41078;BME280;26823;42.662;23.352;2023-09-19T02:17:44;95177.44;;;15.61;82.49
41078;BME280;26823;42.662;23.352;2023-09-19T02:20:14;95170.34;;;15.60;82.78
41078;BME280;26823;42.662;23.352;2023-09-19T02:22:45;95166.81;;;15.46;82.37
41078;BME280;26823;42.662;23.352;2023-09-19T02:25:10;95171.06;;;15.52;82.76
41078;BME280;26823;42.662;23.352;2023-09-19T02:27:36;95183.97;;;15.46;82.98
41078;BME280;26823;42.662;23.352;2023-09-19T02:30:03;95177.41;;;15.47;83.05
41078;BME280;26823;42.662;23.352;2023-09-19T02:32:28;95157.06;;;15.12;84.02
41078;BME280;26823;42.662;23.352;2023-09-19T02:34:56;95164.97;;;15.27;84.11
41078;BME280;26823;42.662;23.352;2023-09-19T02:37:21;95152.97;;;15.28;83.58
41078;BME280;26823;42.662;23.352;2023-09-19T02:39:47;95155.59;;;15.33;83.02
41078;BME280;26823;42.662;23.352;2023-09-19T02:42:12;95155.19;;;15.40;82.91
41078;BME280;26823;42.662;23.352;2023-09-19T02:44:37;95142.38;;;15.41;82.81
41078;BME280;26823;42.662;23.352;2023-09-19T02:47:03;95143.09;;;15.46;82.30
41078;BME280;26823;42.662;23.352;2023-09-19T02:49:29;95154.00;;;15.46;82.17
41078;BME280;26823;42.662;23.352;2023-09-19T02:51:54;95146.53;;;15.38;82.46
41078;BME280;26823;42.662;23.352;2023-09-19T02:54:20;95133.88;;;15.28;82.65
41078;BME280;26823;42.662;23.352;2023-09-19T02:56:53;95136.22;;;15.35;82.72
41078;BME280;26823;42.662;23.352;2023-09-19T02:59:19;95140.88;;;15.35;82.55
41078;BME280;26823;42.662;23.352;2023-09-19T03:01:44;95133.19;;;15.37;82.46
41078;BME280;26823;42.662;23.352;2023-09-19T03:04:13;95141.28;;;15.42;82.55
41078;BME280;26823;42.662;23.352;2023-09-19T03:06:39;95131.78;;;15.39;82.35
41078;BME280;26823;42.662;23.352;2023-09-19T03:09:07;95122.31;;;15.37;82.33
41078;BME280;26823;42.662;23.352;2023-09-19T03:11:36;95122.00;;;15.38;82.56
41078;BME280;26823;42.662;23.352;2023-09-19T03:14:01;95116.75;;;15.42;82.21
41078;BME280;26823;42.662;23.352;2023-09-19T03:16:27;95124.09;;;15.41;81.82
41078;BME280;26823;42.662;23.352;2023-09-19T03:18:53;95137.63;;;15.46;82.36
41078;BME280;26823;42.662;23.352;2023-09-19T03:21:18;95130.66;;;15.40;82.74
41078;BME280;26823;42.662;23.352;2023-09-19T03:23:44;95122.09;;;15.47;82.89
41078;BME280;26823;42.662;23.352;2023-09-19T03:26:11;95090.09;;;15.25;83.04
41078;BME280;26823;42.662;23.352;2023-09-19T03:28:38;95115.44;;;15.39;82.88
41078;BME280;26823;42.662;23.352;2023-09-19T03:31:05;95131.19;;;15.42;82.92
41078;BME280;26823;42.662;23.352;2023-09-19T03:33:31;95116.34;;;15.35;82.92
41078;BME280;26823;42.662;23.352;2023-09-19T03:35:58;95120.78;;;15.30;83.04
41078;BME280;26823;42.662;23.352;2023-09-19T03:38:24;95127.25;;;15.35;83.35
41078;BME280;26823;42.662;23.352;2023-09-19T03:40:50;95133.47;;;15.35;83.32
41078;BME280;26823;42.662;23.352;2023-09-19T03:43:15;95128.13;;;15.30;83.51
41078;BME280;26823;42.662;23.352;2023-09-19T03:45:41;95139.03;;;15.30;83.63
41078;BME280;26823;42.662;23.352;2023-09-19T03:48:10;95127.44;;;15.24;83.95
41078;BME280;26823;42.662;23.352;2023-09-19T03:50:36;95129.06;;;15.25;84.05
41078;BME280;26823;42.662;23.352;2023-09-19T03:53:02;95140.97;;;15.29;84.31
41078;BME280;26823;42.662;23.352;2023-09-19T03:55:27;95134.28;;;15.22;84.76
41078;BME280;26823;42.662;23.352;2023-09-19T03:57:53;95146.19;;;15.26;84.63
41078;BME280;26823;42.662;23.352;2023-09-19T04:00:22;95131.56;;;15.22;84.65
41078;BME280;26823;42.662;23.352;2023-09-19T04:02:52;95132.16;;;15.19;84.68
41078;BME280;26823;42.662;23.352;2023-09-19T04:05:18;95138.41;;;15.19;84.88
41078;BME280;26823;42.662;23.352;2023-09-19T04:07:44;95147.31;;;15.25;84.82
41078;BME280;26823;42.662;23.352;2023-09-19T04:10:10;95148.31;;;15.15;84.97
41078;BME280;26823;42.662;23.352;2023-09-19T04:12:40;95123.75;;;15.01;85.00
41078;BME280;26823;42.662;23.352;2023-09-19T04:15:06;95153.53;;;15.11;85.36
41078;BME280;26823;42.662;23.352;2023-09-19T04:17:32;95138.97;;;15.02;85.38
41078;BME280;26823;42.662;23.352;2023-09-19T04:19:58;95168.84;;;15.07;85.55
41078;BME280;26823;42.662;23.352;2023-09-19T04:22:23;95165.63;;;15.05;86.08
41078;BME280;26823;42.662;23.352;2023-09-19T04:24:49;95168.84;;;15.07;86.10
41078;BME280;26823;42.662;23.352;2023-09-19T04:27:14;95164.00;;;15.04;86.39
41078;BME280;26823;42.662;23.352;2023-09-19T04:29:40;95163.13;;;15.09;86.36
41078;BME280;26823;42.662;23.352;2023-09-19T04:32:07;95159.78;;;15.12;86.29
41078;BME280;26823;42.662;23.352;2023-09-19T04:34:35;95149.28;;;15.05;86.15
41078;BME280;26823;42.662;23.352;2023-09-19T04:37:00;95149.66;;;14.98;86.39
41078;BME280;26823;42.662;23.352;2023-09-19T04:39:27;95152.09;;;15.00;86.75
41078;BME280;26823;42.662;23.352;2023-09-19T04:41:53;95157.47;;;15.05;86.82
41078;BME280;26823;42.662;23.352;2023-09-19T04:44:20;95148.75;;;15.03;86.87
41078;BME280;26823;42.662;23.352;2023-09-19T04:46:46;95137.06;;;15.03;86.91
41078;BME280;26823;42.662;23.352;2023-09-19T04:49:14;95151.31;;;15.13;86.58
41078;BME280;26823;42.662;23.352;2023-09-19T04:51:39;95146.38;;;15.15;86.26
41078;BME280;26823;42.662;23.352;2023-09-19T04:54:05;95141.81;;;15.11;85.71
41078;BME280;26823;42.662;23.352;2023-09-19T04:56:32;95148.09;;;15.11;86.02
41078;BME280;26823;42.662;23.352;2023-09-19T04:59:00;95152.94;;;15.14;85.80
41078;BME280;26823;42.662;23.352;2023-09-19T05:01:26;95146.28;;;15.21;85.50
41078;BME280;26823;42.662;23.352;2023-09-19T05:03:52;95136.13;;;14.93;85.73
41078;BME280;26823;42.662;23.352;2023-09-19T05:06:20;95132.47;;;14.84;86.54
41078;BME280;26823;42.662;23.352;2023-09-19T05:08:49;95135.63;;;14.91;86.06
41078;BME280;26823;42.662;23.352;2023-09-19T05:11:20;95135.88;;;14.57;87.93
41078;BME280;26823;42.662;23.352;2023-09-19T05:13:50;95139.41;;;14.76;87.69
41078;BME280;26823;42.662;23.352;2023-09-19T05:16:16;95125.94;;;14.85;86.80
41078;BME280;26823;42.662;23.352;2023-09-19T05:18:41;95131.50;;;14.94;86.58
41078;BME280;26823;42.662;23.352;2023-09-19T05:21:07;95139.41;;;15.09;86.20
41078;BME280;26823;42.662;23.352;2023-09-19T05:23:33;95132.97;;;15.19;85.79
41078;BME280;26823;42.662;23.352;2023-09-19T05:25:58;95126.44;;;15.34;84.32
41078;BME280;26823;42.662;23.352;2023-09-19T05:28:25;95124.09;;;15.41;84.65
41078;BME280;26823;42.662;23.352;2023-09-19T05:30:52;95129.28;;;15.57;83.79
41078;BME280;26823;42.662;23.352;2023-09-19T05:33:18;95127.94;;;15.68;83.71
41078;BME280;26823;42.662;23.352;2023-09-19T05:35:44;95121.19;;;15.79;81.94
41078;BME280;26823;42.662;23.352;2023-09-19T05:38:18;95127.97;;;15.82;81.70
41078;BME280;26823;42.662;23.352;2023-09-19T05:40:45;95125.97;;;15.88;81.93
41078;BME280;26823;42.662;23.352;2023-09-19T05:43:10;95090.31;;;15.84;81.66
41078;BME280;26823;42.662;23.352;2023-09-19T05:45:36;95121.25;;;16.16;81.41
41078;BME280;26823;42.662;23.352;2023-09-19T05:48:10;95130.78;;;15.91;80.54
41078;BME280;26823;42.662;23.352;2023-09-19T05:50:39;95120.19;;;16.03;80.86
41078;BME280;26823;42.662;23.352;2023-09-19T05:53:05;95112.00;;;16.03;79.89
41078;BME280;26823;42.662;23.352;2023-09-19T05:55:32;95115.44;;;16.09;80.38
41078;BME280;26823;42.662;23.352;2023-09-19T05:57:57;95114.78;;;16.26;80.56
41078;BME280;26823;42.662;23.352;2023-09-19T06:00:24;95113.75;;;16.36;79.74
41078;BME280;26823;42.662;23.352;2023-09-19T06:02:53;95109.19;;;16.31;78.91
41078;BME280;26823;42.662;23.352;2023-09-19T06:05:19;95106.22;;;16.41;78.83
41078;BME280;26823;42.662;23.352;2023-09-19T06:07:45;95119.72;;;16.60;78.03
41078;BME280;26823;42.662;23.352;2023-09-19T06:10:11;95119.97;;;16.73;77.91
41078;BME280;26823;42.662;23.352;2023-09-19T06:12:40;95107.16;;;16.82;77.35
41078;BME280;26823;42.662;23.352;2023-09-19T06:15:06;95104.03;;;16.89;76.85
41078;BME280;26823;42.662;23.352;2023-09-19T06:17:34;95107.03;;;17.01;76.38
41078;BME280;26823;42.662;23.352;2023-09-19T06:20:04;95114.25;;;17.06;76.05
41078;BME280;26823;42.662;23.352;2023-09-19T06:22:30;95110.34;;;17.21;75.79
41078;BME280;26823;42.662;23.352;2023-09-19T06:24:56;95100.88;;;17.27;75.26
41078;BME280;26823;42.662;23.352;2023-09-19T06:27:21;95109.59;;;17.29;74.63
41078;BME280;26823;42.662;23.352;2023-09-19T06:29:47;95105.06;;;17.24;74.58
41078;BME280;26823;42.662;23.352;2023-09-19T06:32:12;95098.34;;;17.31;74.62
41078;BME280;26823;42.662;23.352;2023-09-19T06:34:37;95075.91;;;17.20;74.57
41078;BME280;26823;42.662;23.352;2023-09-19T06:37:08;95095.28;;;17.32;73.62
41078;BME280;26823;42.662;23.352;2023-09-19T06:39:34;95095.63;;;17.39;73.72
41078;BME280;26823;42.662;23.352;2023-09-19T06:41:59;95110.16;;;17.49;73.80
41078;BME280;26823;42.662;23.352;2023-09-19T06:44:27;95101.47;;;17.55;73.76
41078;BME280;26823;42.662;23.352;2023-09-19T06:46:54;95106.63;;;17.48;72.18
41078;BME280;26823;42.662;23.352;2023-09-19T06:49:20;95087.59;;;17.34;72.98
41078;BME280;26823;42.662;23.352;2023-09-19T06:51:45;95114.00;;;17.48;72.97
41078;BME280;26823;42.662;23.352;2023-09-19T06:54:11;95106.47;;;17.53;73.22
41078;BME280;26823;42.662;23.352;2023-09-19T06:56:36;95110.84;;;17.63;72.85
41078;BME280;26823;42.662;23.352;2023-09-19T06:59:08;95108.28;;;17.67;72.81
41078;BME280;26823;42.662;23.352;2023-09-19T07:01:34;95114.53;;;17.58;73.08
41078;BME280;26823;42.662;23.352;2023-09-19T07:04:00;95117.28;;;17.58;72.46
41078;BME280;26823;42.662;23.352;2023-09-19T07:06:25;95101.34;;;17.60;72.80
41078;BME280;26823;42.662;23.352;2023-09-19T07:08:51;95097.00;;;17.59;73.09
41078;BME280;26823;42.662;23.352;2023-09-19T07:11:16;95110.09;;;17.80;72.44
41078;BME280;26823;42.662;23.352;2023-09-19T07:13:42;95097.81;;;17.60;72.05
41078;BME280;26823;42.662;23.352;2023-09-19T07:16:08;95115.69;;;17.66;71.90
41078;BME280;26823;42.662;23.352;2023-09-19T07:18:35;95124.38;;;17.68;71.60
41078;BME280;26823;42.662;23.352;2023-09-19T07:21:01;95117.75;;;17.60;71.65
41078;BME280;26823;42.662;23.352;2023-09-19T07:23:30;95118.53;;;17.52;71.78
41078;BME280;26823;42.662;23.352;2023-09-19T07:26:03;95113.28;;;17.65;71.33
41078;BME280;26823;42.662;23.352;2023-09-19T07:28:30;95119.09;;;17.81;71.68
41078;BME280;26823;42.662;23.352;2023-09-19T07:30:55;95093.34;;;17.73;71.72
41078;BME280;26823;42.662;23.352;2023-09-19T07:33:21;95112.09;;;17.97;71.81
41078;BME280;26823;42.662;23.352;2023-09-19T07:35:47;95116.47;;;18.07;71.01
41078;BME280;26823;42.662;23.352;2023-09-19T07:38:13;95102.59;;;17.95;71.25
41078;BME280;26823;42.662;23.352;2023-09-19T07:40:39;95106.47;;;18.02;71.37
41078;BME280;26823;42.662;23.352;2023-09-19T07:43:05;95127.09;;;18.17;71.40
41078;BME280;26823;42.662;23.352;2023-09-19T07:45:31;95106.81;;;18.18;70.95
41078;BME280;26823;42.662;23.352;2023-09-19T07:47:57;95109.22;;;18.11;69.94
41078;BME280;26823;42.662;23.352;2023-09-19T07:50:23;95103.72;;;18.02;69.74
41078;BME280;26823;42.662;23.352;2023-09-19T07:52:49;95115.03;;;18.09;70.14
41078;BME280;26823;42.662;23.352;2023-09-19T07:55:16;95123.88;;;18.24;69.94
41078;BME280;26823;42.662;23.352;2023-09-19T07:57:43;95126.28;;;18.08;70.18
41078;BME280;26823;42.662;23.352;2023-09-19T08:00:09;95118.91;;;18.17;69.73
41078;BME280;26823;42.662;23.352;2023-09-19T08:02:39;95121.81;;;18.21;69.77
41078;BME280;26823;42.662;23.352;2023-09-19T08:05:08;95116.34;;;18.30;69.80
41078;BME280;26823;42.662;23.352;2023-09-19T08:07:38;95127.00;;;18.57;69.46
41078;BME280;26823;42.662;23.352;2023-09-19T08:10:04;95122.00;;;18.60;68.88
41078;BME280;26823;42.662;23.352;2023-09-19T08:12:30;95111.69;;;18.65;68.39
41078;BME280;26823;42.662;23.352;2023-09-19T08:14:56;95113.75;;;18.86;67.90
41078;BME280;26823;42.662;23.352;2023-09-19T08:17:21;95114.41;;;18.74;67.51
41078;BME280;26823;42.662;23.352;2023-09-19T08:19:48;95106.69;;;18.67;68.06
41078;BME280;26823;42.662;23.352;2023-09-19T08:22:18;95102.34;;;18.66;68.24
41078;BME280;26823;42.662;23.352;2023-09-19T08:24:43;95097.81;;;18.88;68.12
41078;BME280;26823;42.662;23.352;2023-09-19T08:27:09;95098.94;;;18.96;68.36
41078;BME280;26823;42.662;23.352;2023-09-19T08:29:35;95094.13;;;19.01;67.61
41078;BME280;26823;42.662;23.352;2023-09-19T08:32:01;95096.03;;;19.01;66.80
41078;BME280;26823;42.662;23.352;2023-09-19T08:34:26;95098.31;;;18.81;67.94
41078;BME280;26823;42.662;23.352;2023-09-19T08:36:55;95093.63;;;18.90;67.79
41078;BME280;26823;42.662;23.352;2023-09-19T08:39:24;95099.59;;;19.01;67.16
41078;BME280;26823;42.662;23.352;2023-09-19T08:41:57;95111.81;;;19.13;66.88
41078;BME280;26823;42.662;23.352;2023-09-19T08:44:22;95093.91;;;19.15;66.69
41078;BME280;26823;42.662;23.352;2023-09-19T08:46:54;95102.41;;;19.31;66.27
41078;BME280;26823;42.662;23.352;2023-09-19T08:49:28;95100.56;;;19.53;66.84
41078;BME280;26823;42.662;23.352;2023-09-19T08:52:06;95102.75;;;19.68;65.04
41078;BME280;26823;42.662;23.352;2023-09-19T08:54:37;95089.59;;;19.53;65.11
41078;BME280;26823;42.662;23.352;2023-09-19T08:57:06;95095.19;;;19.65;64.52
41078;BME280;26823;42.662;23.352;2023-09-19T08:59:37;95087.66;;;19.53;64.59
41078;BME280;26823;42.662;23.352;2023-09-19T09:02:12;95082.56;;;19.34;64.64
41078;BME280;26823;42.662;23.352;2023-09-19T09:04:41;95083.97;;;19.40;64.45
41078;BME280;26823;42.662;23.352;2023-09-19T09:07:12;95091.56;;;19.44;64.15
41078;BME280;26823;42.662;23.352;2023-09-19T09:09:42;95082.84;;;19.42;64.78
41078;BME280;26823;42.662;23.352;2023-09-19T09:12:11;95055.78;;;19.31;64.58
41078;BME280;26823;42.662;23.352;2023-09-19T09:14:39;95084.91;;;19.53;64.30
41078;BME280;26823;42.662;23.352;2023-09-19T09:17:05;95074.69;;;19.63;64.25
41078;BME280;26823;42.662;23.352;2023-09-19T09:19:30;95079.16;;;19.85;64.03
41078;BME280;26823;42.662;23.352;2023-09-19T09:22:09;95073.28;;;19.95;62.61
41078;BME280;26823;42.662;23.352;2023-09-19T09:24:34;95065.25;;;19.90;62.71
41078;BME280;26823;42.662;23.352;2023-09-19T09:27:04;95063.97;;;20.09;62.25
41078;BME280;26823;42.662;23.352;2023-09-19T09:29:41;95065.38;;;20.15;62.68
41078;BME280;26823;42.662;23.352;2023-09-19T09:34:51;95063.03;;;20.47;61.37
41078;BME280;26823;42.662;23.352;2023-09-19T09:37:17;95039.41;;;20.33;60.57
41078;BME280;26823;42.662;23.352;2023-09-19T09:39:50;95045.50;;;20.18;60.98
41078;BME280;26823;42.662;23.352;2023-09-19T09:45:15;95047.63;;;20.54;61.29
41078;BME280;26823;42.662;23.352;2023-09-19T09:47:46;95038.97;;;20.65;61.01
41078;BME280;26823;42.662;23.352;2023-09-19T09:50:30;95036.28;;;20.77;60.67
41078;BME280;26823;42.662;23.352;2023-09-19T09:53:28;95035.44;;;20.98;59.52
41078;BME280;26823;42.662;23.352;2023-09-19T09:56:09;95033.31;;;21.16;59.61
41078;BME280;26823;42.662;23.352;2023-09-19T09:58:40;95034.81;;;21.26;58.76
41078;BME280;26823;42.662;23.352;2023-09-19T10:01:14;95019.72;;;20.86;58.67
41078;BME280;26823;42.662;23.352;2023-09-19T10:03:42;95020.06;;;20.84;58.89
41078;BME280;26823;42.662;23.352;2023-09-19T10:06:16;95028.50;;;20.46;60.23
41078;BME280;26823;42.662;23.352;2023-09-19T10:09:07;95033.34;;;20.61;60.23
41078;BME280;26823;42.662;23.352;2023-09-19T10:11:42;95033.88;;;20.76;59.74
41078;BME280;26823;42.662;23.352;2023-09-19T10:14:17;95023.28;;;20.87;59.97
41078;BME280;26823;42.662;23.352;2023-09-19T10:16:49;95027.78;;;21.04;59.16
41078;BME280;26823;42.662;23.352;2023-09-19T10:19:23;95018.28;;;21.13;58.44
41078;BME280;26823;42.662;23.352;2023-09-19T10:21:55;95020.25;;;21.25;57.89
41078;BME280;26823;42.662;23.352;2023-09-19T10:24:22;95020.59;;;21.24;58.14
41078;BME280;26823;42.662;23.352;2023-09-19T10:26:50;95012.66;;;21.10;57.96
41078;BME280;26823;42.662;23.352;2023-09-19T10:29:17;95022.47;;;20.86;58.22
41078;BME280;26823;42.662;23.352;2023-09-19T10:31:47;95008.63;;;20.95;58.28
41078;BME280;26823;42.662;23.352;2023-09-19T10:34:15;95013.81;;;21.09;58.07
41078;BME280;26823;42.662;23.352;2023-09-19T10:36:45;95006.25;;;21.06;58.12
41078;BME280;26823;42.662;23.352;2023-09-19T10:39:14;95011.06;;;21.21;58.10
41078;BME280;26823;42.662;23.352;2023-09-19T10:41:47;94996.84;;;21.19;58.00
41078;BME280;26823;42.662;23.352;2023-09-19T10:44:21;95005.81;;;21.28;57.97
41078;BME280;26823;42.662;23.352;2023-09-19T10:46:49;95004.66;;;21.42;57.68
41078;BME280;26823;42.662;23.352;2023-09-19T10:49:14;94996.88;;;21.44;57.39
41078;BME280;26823;42.662;23.352;2023-09-19T10:51:42;94998.38;;;21.54;56.96
41078;BME280;26823;42.662;23.352;2023-09-19T10:54:16;95002.75;;;21.42;56.35
41078;BME280;26823;42.662;23.352;2023-09-19T10:56:46;94996.53;;;21.33;57.25
41078;BME280;26823;42.662;23.352;2023-09-19T10:59:24;94989.09;;;21.46;56.89
41078;BME280;26823;42.662;23.352;2023-09-19T11:04:34;94991.53;;;21.60;56.21
41078;BME280;26823;42.662;23.352;2023-09-19T11:07:11;94991.28;;;21.53;55.83
41078;BME280;26823;42.662;23.352;2023-09-19T11:09:55;94991.19;;;21.61;56.12
41078;BME280;26823;42.662;23.352;2023-09-19T11:15:07;94989.09;;;21.71;56.61
41078;BME280;26823;42.662;23.352;2023-09-19T11:17:42;94985.69;;;21.61;56.30
41078;BME280;26823;42.662;23.352;2023-09-19T11:30:50;94977.56;;;22.06;54.49
41078;BME280;26823;42.662;23.352;2023-09-19T11:33:32;94965.66;;;22.02;54.57
41078;BME280;26823;42.662;23.352;2023-09-19T11:36:14;94964.44;;;22.15;54.82
41078;BME280;26823;42.662;23.352;2023-09-19T11:46:26;94944.41;;;22.43;53.41
41078;BME280;26823;42.662;23.352;2023-09-19T11:48:53;94917.78;;;22.35;53.38
41078;BME280;26823;42.662;23.352;2023-09-19T11:51:24;94924.22;;;22.39;53.73
41078;BME280;26823;42.662;23.352;2023-09-19T11:53:54;94925.22;;;22.46;53.79
41078;BME280;26823;42.662;23.352;2023-09-19T11:56:24;94925.22;;;22.18;54.16
41078;BME280;26823;42.662;23.352;2023-09-19T11:58:52;94937.28;;;22.42;54.12
41078;BME280;26823;42.662;23.352;2023-09-19T12:01:33;94932.69;;;22.46;54.55
41078;BME280;26823;42.662;23.352;2023-09-19T12:04:01;94944.09;;;22.60;54.22
41078;BME280;26823;42.662;23.352;2023-09-19T12:06:30;94938.53;;;22.73;54.28
41078;BME280;26823;42.662;23.352;2023-09-19T12:08:57;94924.31;;;22.87;53.98
41078;BME280;26823;42.662;23.352;2023-09-19T12:11:29;94921.97;;;22.89;52.56
41078;BME280;26823;42.662;23.352;2023-09-19T12:13:58;94924.47;;;22.94;52.04
41078;BME280;26823;42.662;23.352;2023-09-19T12:16:26;94918.78;;;22.87;52.23
41078;BME280;26823;42.662;23.352;2023-09-19T12:18:57;94904.19;;;22.86;53.64
41078;BME280;26823;42.662;23.352;2023-09-19T12:26:29;94901.72;;;23.13;52.25
41078;BME280;26823;42.662;23.352;2023-09-19T12:28:59;94906.97;;;23.18;51.02
41078;BME280;26823;42.662;23.352;2023-09-19T12:31:26;94886.16;;;23.21;51.07
41078;BME280;26823;42.662;23.352;2023-09-19T12:33:53;94891.59;;;23.53;51.42
41078;BME280;26823;42.662;23.352;2023-09-19T12:36:21;94888.94;;;23.56;49.69
41078;BME280;26823;42.662;23.352;2023-09-19T12:38:54;94869.00;;;23.47;50.16
41078;BME280;26823;42.662;23.352;2023-09-19T12:41:20;94870.22;;;23.50;50.04
41078;BME280;26823;42.662;23.352;2023-09-19T12:43:47;94875.16;;;23.40;50.44
41078;BME280;26823;42.662;23.352;2023-09-19T12:46:13;94872.38;;;23.56;51.94
41078;BME280;26823;42.662;23.352;2023-09-19T12:48:40;94871.25;;;23.97;49.87
41078;BME280;26823;42.662;23.352;2023-09-19T12:51:12;94870.72;;;24.10;49.51
41078;BME280;26823;42.662;23.352;2023-09-19T12:53:45;94882.38;;;24.20;49.27
41078;BME280;26823;42.662;23.352;2023-09-19T12:56:13;94873.50;;;24.30;48.59
41078;BME280;26823;42.662;23.352;2023-09-19T12:58:57;94871.59;;;24.34;48.93
41078;BME280;26823;42.662;23.352;2023-09-19T13:01:28;94870.00;;;24.33;48.54
41078;BME280;26823;42.662;23.352;2023-09-19T13:06:37;94859.47;;;24.62;48.95
41078;BME280;26823;42.662;23.352;2023-09-19T13:09:10;94857.81;;;24.57;47.48
41078;BME280;26823;42.662;23.352;2023-09-19T13:11:37;94849.19;;;24.39;48.39
41078;BME280;26823;42.662;23.352;2023-09-19T13:14:26;94852.47;;;24.45;47.30
41078;BME280;26823;42.662;23.352;2023-09-19T13:25:11;94847.88;;;24.33;48.06
41078;BME280;26823;42.662;23.352;2023-09-19T13:27:53;94842.78;;;24.35;47.56
41078;BME280;26823;42.662;23.352;2023-09-19T13:30:20;94843.41;;;24.48;47.82
41078;BME280;26823;42.662;23.352;2023-09-19T13:32:46;94833.91;;;24.46;48.12
41078;BME280;26823;42.662;23.352;2023-09-19T13:35:13;94835.81;;;24.41;47.76
41078;BME280;26823;42.662;23.352;2023-09-19T13:37:39;94821.25;;;24.45;48.13
41078;BME280;26823;42.662;23.352;2023-09-19T13:42:52;94826.66;;;24.61;48.76
41078;BME280;26823;42.662;23.352;2023-09-19T13:45:19;94815.38;;;24.46;47.96
41078;BME280;26823;42.662;23.352;2023-09-19T13:47:47;94818.22;;;24.53;47.52
41078;BME280;26823;42.662;23.352;2023-09-19T13:50:12;94818.47;;;24.64;47.77
41078;BME280;26823;42.662;23.352;2023-09-19T13:52:38;94815.22;;;24.62;47.16
41078;BME280;26823;42.662;23.352;2023-09-19T13:55:04;94825.13;;;24.86;47.91
41078;BME280;26823;42.662;23.352;2023-09-19T13:57:30;94818.31;;;24.80;46.59
41078;BME280;26823;42.662;23.352;2023-09-19T14:00:11;94817.59;;;24.83;47.78
41078;BME280;26823;42.662;23.352;2023-09-19T14:02:39;94814.69;;;24.76;48.83